Time;durP1;ratioP1;P1;durP2;ratioP2;P2;SDS_P1;SDS_P2;PMS_P1;PMS_P2;Temp;Humidity;BMP_temperature;BMP_pressure;BME280_temperature;BME280_humidity;BME280_pressure;Samples;Min_cycle;Max_cycle;Signal;HPM_P1;HPM_P2
2023/03/20 00:02:18;;;;;;;1.30;1.20;;;;;;;;;;4967666;28;20196;-81
2023/03/20 00:04:43;;;;;;;1.40;1.30;;;;;;;;;;4969246;28;20185;-81
2023/03/20 00:07:11;;;;;;;1.10;1.10;;;;;;;;;;4965099;28;20300;-80
2023/03/20 00:09:36;;;;;;;1.30;1.20;;;;;;;;;;4968674;28;20185;-81
2023/03/20 00:12:02;;;;;;;0.90;0.90;;;;;;;;;;4963461;28;20184;-81
2023/03/20 00:14:27;;;;;;;0.73;0.73;;;;;;;;;;4966468;28;20203;-81
2023/03/20 00:16:52;;;;;;;0.73;0.73;;;;;;;;;;4967406;28;20221;-81
2023/03/20 00:19:19;;;;;;;1.00;0.90;;;;;;;;;;4972135;28;20177;-81
2023/03/20 00:21:46;;;;;;;0.80;0.80;;;;;;;;;;4970025;28;20196;-81
2023/03/20 00:24:11;;;;;;;0.70;0.70;;;;;;;;;;4971784;28;20208;-81
2023/03/20 00:26:37;;;;;;;0.70;0.70;;;;;;;;;;4971217;28;20181;-81
2023/03/20 00:29:03;;;;;;;0.93;0.93;;;;;;;;;;4972689;28;20244;-81
2023/03/20 00:31:30;;;;;;;0.63;0.63;;;;;;;;;;4971866;28;20388;-81
2023/03/20 00:33:57;;;;;;;0.83;0.83;;;;;;;;;;4975097;28;20271;-81
2023/03/20 00:36:22;;;;;;;0.83;0.83;;;;;;;;;;4971832;28;20210;-81
2023/03/20 00:38:47;;;;;;;1.00;1.00;;;;;;;;;;4965700;28;20177;-81
2023/03/20 00:41:19;;;;;;;0.80;0.80;;;;;;;;;;4966056;28;20320;-81
2023/03/20 00:43:45;;;;;;;0.77;0.77;;;;;;;;;;4970412;28;20299;-81
2023/03/20 00:46:12;;;;;;;1.00;0.90;;;;;;;;;;4968247;28;20229;-81
2023/03/20 00:48:39;;;;;;;1.53;0.67;;;;;;;;;;4970283;28;20177;-81
2023/03/20 00:51:04;;;;;;;0.80;0.80;;;;;;;;;;4970440;28;20181;-81
2023/03/20 00:53:29;;;;;;;0.77;0.77;;;;;;;;;;4972325;28;20180;-81
2023/03/20 00:55:54;;;;;;;0.80;0.67;;;;;;;;;;4970497;28;20284;-80
2023/03/20 00:58:20;;;;;;;0.87;0.87;;;;;;;;;;4970869;28;20294;-80
2023/03/20 01:00:45;;;;;;;0.70;0.70;;;;;;;;;;4976006;28;20276;-81
2023/03/20 01:03:18;;;;;;;2.57;0.80;;;;;;;;;;4970250;28;20213;-81
2023/03/20 01:05:43;;;;;;;0.70;0.70;;;;;;;;;;4976223;28;20177;-81
2023/03/20 01:08:13;;;;;;;0.73;0.70;;;;;;;;;;4971826;28;20195;-80
2023/03/20 01:10:39;;;;;;;0.80;0.80;;;;;;;;;;4970372;28;20235;-81
2023/03/20 01:13:08;;;;;;;1.60;0.80;;;;;;;;;;4970434;28;20220;-81
2023/03/20 01:15:35;;;;;;;0.90;0.90;;;;;;;;;;4958377;28;20252;-81
2023/03/20 01:18:00;;;;;;;0.80;0.80;;;;;;;;;;4977965;28;20295;-80
2023/03/20 01:20:27;;;;;;;1.20;1.00;;;;;;;;;;4971615;28;20268;-80
2023/03/20 01:22:53;;;;;;;2.13;0.90;;;;;;;;;;4971430;28;20205;-80
2023/03/20 01:25:18;;;;;;;1.40;1.17;;;;;;;;;;4967308;28;20189;-81
2023/03/20 01:27:45;;;;;;;2.00;1.30;;;;;;;;;;4970923;28;20199;-81
2023/03/20 01:30:24;;;;;;;1.63;1.53;;;;;;;;;;4970383;28;20190;-81
2023/03/20 01:32:51;;;;;;;1.80;1.60;;;;;;;;;;4970962;28;20194;-81
2023/03/20 01:35:18;;;;;;;1.60;1.37;;;;;;;;;;4975105;28;20192;-81
2023/03/20 01:37:44;;;;;;;2.67;1.30;;;;;;;;;;4970294;28;20228;-81
2023/03/20 01:40:28;;;;;;;1.30;1.20;;;;;;;;;;4970307;28;20209;-81
2023/03/20 01:42:53;;;;;;;1.60;1.50;;;;;;;;;;4969686;28;20213;-81
2023/03/20 01:45:20;;;;;;;1.93;1.50;;;;;;;;;;4990477;28;20184;-81
2023/03/20 01:47:46;;;;;;;1.47;1.30;;;;;;;;;;4972000;28;20190;-81
2023/03/20 01:50:21;;;;;;;2.03;1.73;;;;;;;;;;4972054;28;20195;-81
2023/03/20 01:52:47;;;;;;;1.73;1.37;;;;;;;;;;4980524;28;20187;-81
2023/03/20 01:55:12;;;;;;;1.93;1.70;;;;;;;;;;4974466;28;20211;-81
2023/03/20 01:57:38;;;;;;;2.80;2.00;;;;;;;;;;4977292;28;20205;-81
2023/03/20 02:00:05;;;;;;;1.70;1.57;;;;;;;;;;4989138;28;20266;-81
2023/03/20 02:02:31;;;;;;;1.50;1.33;;;;;;;;;;4972726;28;20187;-80
2023/03/20 02:05:02;;;;;;;2.00;1.73;;;;;;;;;;4971575;28;20179;-81
2023/03/20 02:07:27;;;;;;;1.90;1.70;;;;;;;;;;4974098;28;20275;-81
2023/03/20 02:09:52;;;;;;;1.80;1.70;;;;;;;;;;4973756;28;20247;-80
2023/03/20 02:12:18;;;;;;;1.87;1.70;;;;;;;;;;4978498;28;20184;-81
2023/03/20 02:14:45;;;;;;;2.00;1.57;;;;;;;;;;4987832;28;20187;-81
2023/03/20 02:17:10;;;;;;;2.00;1.60;;;;;;;;;;4986687;28;20230;-81
2023/03/20 02:19:52;;;;;;;1.90;1.70;;;;;;;;;;4987181;28;20179;-81
2023/03/20 02:22:17;;;;;;;2.67;1.97;;;;;;;;;;4969199;28;20185;-81
2023/03/20 02:25:02;;;;;;;1.73;1.63;;;;;;;;;;4977600;28;20206;-81
2023/03/20 02:27:46;;;;;;;2.27;1.90;;;;;;;;;;4973418;28;20280;-81
2023/03/20 02:30:14;;;;;;;1.87;1.67;;;;;;;;;;4983835;28;20271;-81
2023/03/20 02:33:03;;;;;;;2.17;1.73;;;;;;;;;;4990386;28;20239;-81
2023/03/20 02:35:31;;;;;;;1.93;1.80;;;;;;;;;;4970387;28;20659;-81
2023/03/20 02:38:03;;;;;;;1.77;1.57;;;;;;;;;;4973184;28;20214;-81
2023/03/20 02:40:35;;;;;;;2.00;1.40;;;;;;;;;;4969097;28;20176;-81
2023/03/20 02:43:15;;;;;;;1.70;1.60;;;;;;;;;;4990414;28;20233;-81
2023/03/20 02:46:03;;;;;;;1.70;1.60;;;;;;;;;;4976562;28;20267;-81
2023/03/20 02:48:42;;;;;;;1.70;1.60;;;;;;;;;;4987317;28;20187;-81
2023/03/20 02:51:10;;;;;;;2.27;1.67;;;;;;;;;;4985723;28;20233;-81
2023/03/20 02:53:47;;;;;;;2.23;1.50;;;;;;;;;;4988646;28;20198;-81
2023/03/20 02:56:19;;;;;;;1.77;1.67;;;;;;;;;;4978369;28;20184;-81
2023/03/20 02:58:47;;;;;;;1.83;1.40;;;;;;;;;;4975912;28;20176;-81
2023/03/20 03:01:18;;;;;;;2.30;1.40;;;;;;;;;;4988084;28;20177;-81
2023/03/20 03:03:49;;;;;;;1.53;1.43;;;;;;;;;;4987629;28;20177;-80
2023/03/20 03:06:22;;;;;;;1.30;1.17;;;;;;;;;;4975644;28;20188;-80
2023/03/20 03:08:52;;;;;;;1.97;1.13;;;;;;;;;;4972636;28;20187;-81
2023/03/20 03:11:20;;;;;;;2.10;1.50;;;;;;;;;;4970710;28;20246;-81
2023/03/20 03:13:49;;;;;;;2.13;1.40;;;;;;;;;;4990496;28;20267;-81
2023/03/20 03:16:18;;;;;;;1.60;1.50;;;;;;;;;;4987819;28;20205;-81
2023/03/20 03:18:45;;;;;;;1.33;1.23;;;;;;;;;;4977645;28;20186;-81
2023/03/20 03:21:12;;;;;;;1.53;1.40;;;;;;;;;;4989237;28;20180;-81
2023/03/20 03:23:47;;;;;;;1.70;1.60;;;;;;;;;;4975664;28;20206;-81
2023/03/20 03:26:21;;;;;;;2.50;1.47;;;;;;;;;;4983314;28;20187;-81
2023/03/20 03:28:48;;;;;;;1.97;1.83;;;;;;;;;;4974950;28;20188;-80
2023/03/20 03:31:14;;;;;;;3.97;1.50;;;;;;;;;;4972936;28;20176;-80
2023/03/20 03:33:42;;;;;;;2.07;1.47;;;;;;;;;;4973362;28;20173;-81
2023/03/20 03:36:12;;;;;;;2.53;1.70;;;;;;;;;;4972684;28;20190;-81
2023/03/20 03:38:56;;;;;;;1.77;1.67;;;;;;;;;;4972077;28;20184;-81
2023/03/20 03:41:27;;;;;;;1.50;1.33;;;;;;;;;;4994728;28;20181;-81
2023/03/20 03:43:53;;;;;;;1.47;1.37;;;;;;;;;;4970286;28;20246;-81
2023/03/20 03:46:18;;;;;;;1.73;1.47;;;;;;;;;;4969531;28;20184;-81
2023/03/20 03:48:46;;;;;;;1.63;1.53;;;;;;;;;;4967438;28;20181;-81
2023/03/20 03:51:21;;;;;;;2.57;1.57;;;;;;;;;;4968144;28;20247;-81
2023/03/20 03:53:49;;;;;;;2.00;1.40;;;;;;;;;;4970847;28;20189;-80
2023/03/20 03:56:17;;;;;;;1.70;1.60;;;;;;;;;;4970197;28;20191;-81
2023/03/20 03:58:44;;;;;;;2.30;1.50;;;;;;;;;;4968392;28;20283;-80
2023/03/20 04:01:11;;;;;;;1.40;1.30;;;;;;;;;;4971650;28;20181;-80
2023/03/20 04:03:48;;;;;;;2.00;1.80;;;;;;;;;;4973603;28;20192;-80
2023/03/20 04:06:14;;;;;;;1.60;1.50;;;;;;;;;;4972514;28;20187;-81
2023/03/20 04:08:40;;;;;;;2.17;1.80;;;;;;;;;;4974383;28;20185;-81
2023/03/20 04:11:06;;;;;;;2.03;1.83;;;;;;;;;;4972293;28;20187;-81
2023/03/20 04:13:31;;;;;;;2.07;1.70;;;;;;;;;;4968659;28;20200;-81
2023/03/20 04:15:56;;;;;;;1.97;1.83;;;;;;;;;;4973099;28;20192;-80
2023/03/20 04:18:22;;;;;;;1.83;1.73;;;;;;;;;;4968424;28;20224;-81
2023/03/20 04:20:47;;;;;;;2.20;2.00;;;;;;;;;;4972847;28;20183;-81
2023/03/20 04:23:12;;;;;;;2.30;2.10;;;;;;;;;;4969069;28;20177;-81
2023/03/20 04:25:38;;;;;;;2.00;1.80;;;;;;;;;;4972087;28;20208;-81
2023/03/20 04:28:03;;;;;;;3.47;2.77;;;;;;;;;;4972126;28;20279;-81
2023/03/20 04:30:28;;;;;;;3.57;2.73;;;;;;;;;;4971403;28;20184;-81
2023/03/20 04:32:53;;;;;;;4.07;3.33;;;;;;;;;;4973674;28;20196;-81
2023/03/20 04:35:22;;;;;;;4.20;2.77;;;;;;;;;;4972480;28;20283;-81
2023/03/20 04:37:47;;;;;;;2.93;2.63;;;;;;;;;;4973452;28;20223;-81
2023/03/20 04:40:13;;;;;;;2.50;2.30;;;;;;;;;;4976752;28;20187;-81
2023/03/20 04:42:38;;;;;;;2.60;2.40;;;;;;;;;;4975217;28;20265;-80
2023/03/20 04:45:04;;;;;;;2.40;2.17;;;;;;;;;;4972294;28;20225;-81
2023/03/20 04:47:29;;;;;;;2.60;2.40;;;;;;;;;;4974253;28;20277;-81
2023/03/20 04:49:55;;;;;;;2.50;2.30;;;;;;;;;;4972669;28;20271;-81
2023/03/20 04:52:20;;;;;;;2.33;1.97;;;;;;;;;;4974347;28;20241;-81
2023/03/20 04:54:45;;;;;;;2.80;2.40;;;;;;;;;;4979672;28;20194;-81
2023/03/20 04:57:10;;;;;;;2.43;2.10;;;;;;;;;;4973008;28;20212;-80
2023/03/20 04:59:36;;;;;;;2.57;2.33;;;;;;;;;;4973462;28;20177;-80
2023/03/20 05:02:01;;;;;;;4.03;2.23;;;;;;;;;;4974083;28;20180;-81
2023/03/20 05:04:26;;;;;;;3.13;2.70;;;;;;;;;;4975927;28;20185;-81
2023/03/20 05:06:52;;;;;;;2.40;2.20;;;;;;;;;;4977270;28;20181;-81
2023/03/20 05:09:17;;;;;;;2.27;2.07;;;;;;;;;;4968859;28;20192;-81
2023/03/20 05:11:42;;;;;;;3.13;2.43;;;;;;;;;;4968215;28;20181;-81
2023/03/20 05:14:07;;;;;;;2.87;2.50;;;;;;;;;;4975264;28;20191;-81
2023/03/20 05:16:33;;;;;;;3.60;2.30;;;;;;;;;;4972120;28;20328;-81
2023/03/20 05:18:58;;;;;;;2.67;2.47;;;;;;;;;;4972870;28;20177;-81
2023/03/20 05:21:23;;;;;;;2.40;2.17;;;;;;;;;;4970657;28;20189;-81
2023/03/20 05:23:49;;;;;;;5.73;3.67;;;;;;;;;;4967483;28;20212;-81
2023/03/20 05:26:14;;;;;;;4.50;3.97;;;;;;;;;;4981403;28;20189;-81
2023/03/20 05:28:40;;;;;;;3.90;3.23;;;;;;;;;;4972157;28;20180;-81
2023/03/20 05:31:05;;;;;;;3.13;2.60;;;;;;;;;;4970143;28;20209;-81
2023/03/20 05:33:30;;;;;;;3.27;2.63;;;;;;;;;;4972907;28;20177;-81
2023/03/20 05:35:55;;;;;;;2.60;2.40;;;;;;;;;;4972668;28;20215;-81
2023/03/20 05:38:25;;;;;;;2.10;1.90;;;;;;;;;;4971308;28;20204;-81
2023/03/20 05:40:55;;;;;;;2.93;2.20;;;;;;;;;;4971572;28;20192;-81
2023/03/20 05:43:20;;;;;;;2.60;2.40;;;;;;;;;;4972638;28;20287;-81
2023/03/20 05:45:45;;;;;;;2.87;2.67;;;;;;;;;;4972162;28;20185;-81
2023/03/20 05:48:10;;;;;;;3.50;2.97;;;;;;;;;;4971848;28;20192;-81
2023/03/20 05:50:35;;;;;;;3.20;2.90;;;;;;;;;;4973976;28;20181;-80
2023/03/20 05:53:01;;;;;;;2.67;2.47;;;;;;;;;;4967492;28;20196;-81
2023/03/20 05:55:26;;;;;;;3.90;2.50;;;;;;;;;;4965947;28;20251;-81
2023/03/20 05:57:51;;;;;;;2.30;2.10;;;;;;;;;;4966751;28;20231;-81
2023/03/20 06:00:17;;;;;;;2.40;2.20;;;;;;;;;;4971075;28;20187;-81
2023/03/20 06:02:42;;;;;;;2.30;2.10;;;;;;;;;;4967990;28;20185;-81
2023/03/20 06:05:08;;;;;;;3.77;1.93;;;;;;;;;;4962892;28;20255;-81
2023/03/20 06:07:33;;;;;;;2.10;1.90;;;;;;;;;;4972147;28;20181;-81
2023/03/20 06:09:58;;;;;;;5.27;2.60;;;;;;;;;;4967805;28;20201;-81
2023/03/20 06:12:24;;;;;;;2.40;1.60;;;;;;;;;;4973488;28;20182;-81
2023/03/20 06:14:49;;;;;;;2.00;1.83;;;;;;;;;;4971447;28;20189;-80
2023/03/20 06:17:14;;;;;;;2.10;2.00;;;;;;;;;;4968389;28;20205;-81
2023/03/20 06:19:40;;;;;;;2.30;2.10;;;;;;;;;;4968853;28;20212;-81
2023/03/20 06:22:05;;;;;;;2.83;2.10;;;;;;;;;;4969539;28;20176;-81
2023/03/20 06:24:30;;;;;;;3.10;2.80;;;;;;;;;;4968623;28;20223;-81
2023/03/20 06:26:55;;;;;;;3.17;2.73;;;;;;;;;;4961699;28;20189;-81
2023/03/20 06:29:21;;;;;;;2.87;2.63;;;;;;;;;;4963870;28;20177;-81
2023/03/20 06:31:46;;;;;;;3.60;2.63;;;;;;;;;;4976876;28;20197;-81
2023/03/20 06:34:12;;;;;;;2.67;2.47;;;;;;;;;;4970171;28;20185;-81
2023/03/20 06:36:37;;;;;;;4.40;3.73;;;;;;;;;;4969014;28;20214;-81
2023/03/20 06:39:02;;;;;;;4.10;3.10;;;;;;;;;;4964970;28;20236;-81
2023/03/20 06:41:27;;;;;;;4.37;3.97;;;;;;;;;;4976380;28;20188;-81
2023/03/20 06:43:53;;;;;;;4.17;3.73;;;;;;;;;;4959065;28;20227;-81
2023/03/20 06:46:18;;;;;;;5.47;3.90;;;;;;;;;;4967368;28;20218;-81
2023/03/20 06:48:43;;;;;;;4.70;4.10;;;;;;;;;;4964369;28;20191;-81
2023/03/20 06:51:08;;;;;;;4.33;3.90;;;;;;;;;;4968608;28;20185;-81
2023/03/20 06:53:34;;;;;;;4.07;3.67;;;;;;;;;;4971410;28;20289;-81
2023/03/20 06:55:59;;;;;;;5.73;4.37;;;;;;;;;;4967494;28;20217;-81
2023/03/20 06:58:24;;;;;;;5.60;4.57;;;;;;;;;;4967091;28;20291;-81
2023/03/20 07:00:50;;;;;;;3.67;3.33;;;;;;;;;;4968056;28;20180;-80
2023/03/20 07:03:16;;;;;;;3.80;3.40;;;;;;;;;;4966798;28;20176;-82
2023/03/20 07:05:42;;;;;;;4.23;3.83;;;;;;;;;;4972380;28;20181;-81
2023/03/20 07:08:07;;;;;;;4.90;4.40;;;;;;;;;;4967379;28;20240;-82
2023/03/20 07:10:33;;;;;;;46.23;36.83;;;;;;;;;;4966017;28;20276;-81
2023/03/20 07:12:59;;;;;;;9.40;7.60;;;;;;;;;;4980648;28;20193;-81
2023/03/20 07:15:24;;;;;;;4.37;3.97;;;;;;;;;;4965996;28;20185;-81
2023/03/20 07:17:49;;;;;;;5.80;4.93;;;;;;;;;;4966716;28;20209;-81
2023/03/20 07:20:15;;;;;;;5.80;4.43;;;;;;;;;;4965893;28;20244;-81
2023/03/20 07:22:40;;;;;;;5.60;4.47;;;;;;;;;;4966320;28;20184;-81
2023/03/20 07:25:07;;;;;;;4.87;4.47;;;;;;;;;;4966150;28;20203;-81
2023/03/20 07:27:32;;;;;;;4.70;4.20;;;;;;;;;;4963929;28;20187;-81
2023/03/20 07:29:57;;;;;;;5.40;4.47;;;;;;;;;;4965607;28;20195;-81
2023/03/20 07:32:22;;;;;;;3.87;3.43;;;;;;;;;;4972500;28;20189;-82
2023/03/20 07:34:49;;;;;;;4.80;3.63;;;;;;;;;;4969258;28;20193;-82
2023/03/20 07:37:14;;;;;;;4.20;3.43;;;;;;;;;;4973084;28;20195;-81
2023/03/20 07:39:39;;;;;;;4.33;3.60;;;;;;;;;;4967091;28;20263;-81
2023/03/20 07:42:05;;;;;;;4.57;3.40;;;;;;;;;;4973037;28;20201;-81
2023/03/20 07:44:30;;;;;;;4.70;3.70;;;;;;;;;;4970542;28;20224;-81
2023/03/20 07:46:56;;;;;;;5.00;3.53;;;;;;;;;;4969447;28;20260;-81
2023/03/20 07:49:21;;;;;;;4.83;3.90;;;;;;;;;;4971550;28;20185;-81
2023/03/20 07:51:46;;;;;;;5.97;4.20;;;;;;;;;;4966341;28;20204;-81
2023/03/20 07:54:12;;;;;;;5.83;4.30;;;;;;;;;;4961931;28;20242;-81
2023/03/20 07:56:38;;;;;;;4.90;4.40;;;;;;;;;;4973545;28;20290;-81
2023/03/20 07:59:03;;;;;;;5.23;3.63;;;;;;;;;;4968677;28;20185;-81
2023/03/20 08:01:28;;;;;;;6.03;4.87;;;;;;;;;;4970677;28;20179;-81
2023/03/20 08:03:53;;;;;;;5.30;4.30;;;;;;;;;;4971373;28;20174;-81
2023/03/20 08:06:21;;;;;;;7.07;4.50;;;;;;;;;;4971477;28;20268;-81
2023/03/20 08:08:48;;;;;;;5.80;5.00;;;;;;;;;;4970712;28;20205;-81
2023/03/20 08:11:14;;;;;;;6.10;4.77;;;;;;;;;;4972580;28;20188;-81
2023/03/20 08:13:39;;;;;;;6.07;4.40;;;;;;;;;;4969216;28;20183;-82
2023/03/20 08:16:05;;;;;;;6.93;5.47;;;;;;;;;;4968302;28;20188;-81
2023/03/20 08:18:30;;;;;;;5.60;4.60;;;;;;;;;;4973356;28;20207;-81
2023/03/20 08:20:56;;;;;;;6.90;4.97;;;;;;;;;;4978260;28;20184;-78
2023/03/20 08:23:21;;;;;;;6.03;5.40;;;;;;;;;;4965826;28;20169;-79
2023/03/20 08:25:50;;;;;;;7.90;4.53;;;;;;;;;;4971724;28;20181;-78
2023/03/20 08:28:15;;;;;;;7.00;4.97;;;;;;;;;;4973171;28;20176;-80
2023/03/20 08:30:41;;;;;;;5.33;4.67;;;;;;;;;;4964720;28;20255;-80
2023/03/20 08:33:06;;;;;;;5.80;4.30;;;;;;;;;;4973028;28;20221;-79
2023/03/20 08:35:31;;;;;;;6.53;4.97;;;;;;;;;;4974750;28;20187;-79
2023/03/20 08:37:56;;;;;;;5.70;4.30;;;;;;;;;;4975007;28;20204;-80
2023/03/20 08:40:22;;;;;;;5.50;4.27;;;;;;;;;;4973028;28;20184;-80
2023/03/20 08:42:47;;;;;;;5.83;4.87;;;;;;;;;;4976359;28;20200;-80
2023/03/20 08:45:13;;;;;;;8.63;5.03;;;;;;;;;;4993904;28;20229;-80
2023/03/20 08:47:38;;;;;;;4.30;3.37;;;;;;;;;;4984379;28;20180;-79
2023/03/20 08:50:03;;;;;;;5.07;3.80;;;;;;;;;;4967071;28;20197;-80
2023/03/20 08:52:28;;;;;;;5.53;4.10;;;;;;;;;;4976762;28;20212;-80
2023/03/20 08:54:54;;;;;;;5.07;4.57;;;;;;;;;;4976804;28;20263;-80
2023/03/20 08:57:19;;;;;;;7.23;4.50;;;;;;;;;;4970877;28;20346;-80
2023/03/20 08:59:44;;;;;;;5.83;4.53;;;;;;;;;;4976796;28;20304;-80
2023/03/20 09:02:10;;;;;;;5.47;4.00;;;;;;;;;;4977098;28;20255;-80
2023/03/20 09:04:35;;;;;;;4.00;3.60;;;;;;;;;;4979354;28;20231;-80
2023/03/20 09:07:01;;;;;;;5.67;4.10;;;;;;;;;;4977268;28;20180;-80
2023/03/20 09:09:28;;;;;;;6.33;4.67;;;;;;;;;;4979410;28;20188;-80
2023/03/20 09:11:54;;;;;;;7.37;6.30;;;;;;;;;;4970688;28;20180;-80
2023/03/20 09:14:19;;;;;;;12.63;9.43;;;;;;;;;;4977431;28;20188;-80
2023/03/20 09:16:44;;;;;;;6.17;4.87;;;;;;;;;;4976105;28;20201;-80
2023/03/20 09:19:10;;;;;;;7.17;5.20;;;;;;;;;;4976802;28;20240;-80
2023/03/20 09:21:35;;;;;;;10.07;8.27;;;;;;;;;;4979067;28;20199;-80
2023/03/20 09:24:00;;;;;;;5.50;5.00;;;;;;;;;;4972016;28;20187;-80
2023/03/20 09:26:25;;;;;;;3.33;2.97;;;;;;;;;;4984816;28;20189;-80
2023/03/20 09:28:51;;;;;;;4.17;3.60;;;;;;;;;;4977477;28;20181;-80
2023/03/20 09:31:16;;;;;;;4.00;3.47;;;;;;;;;;4978249;28;20188;-80
2023/03/20 09:33:41;;;;;;;4.17;3.73;;;;;;;;;;4975546;28;20183;-80
2023/03/20 09:36:10;;;;;;;3.27;2.97;;;;;;;;;;4975781;28;20195;-80
2023/03/20 09:38:35;;;;;;;3.93;3.00;;;;;;;;;;4980355;28;20192;-80
2023/03/20 09:41:01;;;;;;;3.77;3.30;;;;;;;;;;4978623;28;20192;-80
2023/03/20 09:43:45;;;;;;;3.20;2.90;;;;;;;;;;4977186;28;20225;-80
2023/03/20 09:46:26;;;;;;;3.50;2.83;;;;;;;;;;4973147;28;20190;-80
2023/03/20 09:48:56;;;;;;;3.27;2.60;;;;;;;;;;4971457;28;20206;-80
2023/03/20 09:51:21;;;;;;;3.30;2.40;;;;;;;;;;4974579;28;20178;-80
2023/03/20 09:53:48;;;;;;;3.23;2.67;;;;;;;;;;4976170;28;20234;-80
2023/03/20 09:56:16;;;;;;;3.70;2.87;;;;;;;;;;4993577;28;20175;-80
2023/03/20 09:58:41;;;;;;;2.47;2.20;;;;;;;;;;4977622;28;20293;-80
2023/03/20 10:01:12;;;;;;;2.80;2.50;;;;;;;;;;4974379;28;20274;-80
2023/03/20 10:03:55;;;;;;;2.70;2.50;;;;;;;;;;4974377;28;20180;-80
2023/03/20 10:06:20;;;;;;;3.07;2.77;;;;;;;;;;4975958;28;20186;-80
2023/03/20 10:08:46;;;;;;;3.03;2.70;;;;;;;;;;4975940;28;20185;-80
2023/03/20 10:11:40;;;;;;;4.00;3.00;;;;;;;;;;4976287;28;20197;-81
2023/03/20 10:14:06;;;;;;;4.83;3.00;;;;;;;;;;4958761;28;20191;-80
2023/03/20 10:16:34;;;;;;;3.03;2.73;;;;;;;;;;4975719;28;20198;-81
2023/03/20 10:19:12;;;;;;;4.60;2.90;;;;;;;;;;4975680;28;20186;-80
2023/03/20 10:21:40;;;;;;;2.93;2.50;;;;;;;;;;4974651;28;20186;-80
2023/03/20 10:24:08;;;;;;;3.10;2.63;;;;;;;;;;4989336;28;20177;-81
2023/03/20 10:26:35;;;;;;;3.57;3.27;;;;;;;;;;4994073;28;20183;-81
2023/03/20 10:29:01;;;;;;;4.37;3.10;;;;;;;;;;4977022;28;20189;-81
2023/03/20 10:31:32;;;;;;;3.00;2.70;;;;;;;;;;4992707;28;20263;-78
2023/03/20 10:34:00;;;;;;;1.70;1.60;;;;;;;;;;4975547;28;20183;-83
2023/03/20 10:36:37;;;;;;;3.77;2.70;;;;;;;;;;4975030;28;20231;-82
2023/03/20 10:39:21;;;;;;;3.53;2.77;;;;;;;;;;4974173;28;20186;-82
2023/03/20 10:41:53;;;;;;;3.00;2.60;;;;;;;;;;4989163;28;20212;-80
2023/03/20 10:44:26;;;;;;;2.73;2.47;;;;;;;;;;4976937;28;20298;-80
2023/03/20 10:46:52;;;;;;;4.67;3.13;;;;;;;;;;4978198;28;20198;-80
2023/03/20 10:49:39;;;;;;;3.50;2.70;;;;;;;;;;4975055;28;20354;-80
2023/03/20 10:52:13;;;;;;;2.30;2.10;;;;;;;;;;4988761;28;20192;-80
2023/03/20 10:54:43;;;;;;;3.73;2.63;;;;;;;;;;4974681;28;20193;-80
2023/03/20 10:57:16;;;;;;;3.07;2.30;;;;;;;;;;4974846;28;20223;-79
2023/03/20 10:59:49;;;;;;;6.87;3.20;;;;;;;;;;4978303;28;20182;-80
2023/03/20 11:02:16;;;;;;;3.97;2.80;;;;;;;;;;4974977;28;20195;-80
2023/03/20 11:04:41;;;;;;;2.90;2.67;;;;;;;;;;4976871;28;20190;-80
2023/03/20 11:07:15;;;;;;;3.80;2.30;;;;;;;;;;4975240;28;20179;-80
2023/03/20 11:09:41;;;;;;;2.80;2.57;;;;;;;;;;4978004;28;20182;-83
2023/03/20 11:12:13;;;;;;;2.40;2.20;;;;;;;;;;4977393;28;20194;-83
2023/03/20 11:14:38;;;;;;;2.83;2.63;;;;;;;;;;4992063;28;20416;-83
2023/03/20 11:17:05;;;;;;;3.13;2.87;;;;;;;;;;4977982;28;20206;-83
2023/03/20 11:19:34;;;;;;;3.40;3.10;;;;;;;;;;4982590;28;20171;-83
2023/03/20 11:22:05;;;;;;;3.43;2.80;;;;;;;;;;4976424;28;20275;-83
2023/03/20 11:24:41;;;;;;;7.47;3.17;;;;;;;;;;4975299;28;20307;-83
2023/03/20 11:27:24;;;;;;;4.03;2.97;;;;;;;;;;4970674;28;20194;-83
2023/03/20 11:29:50;;;;;;;4.23;3.17;;;;;;;;;;4980165;28;20180;-83
2023/03/20 11:32:21;;;;;;;3.27;2.97;;;;;;;;;;4994193;28;20179;-82
2023/03/20 11:34:46;;;;;;;3.23;2.90;;;;;;;;;;4991353;28;20194;-83
2023/03/20 11:37:28;;;;;;;3.83;3.10;;;;;;;;;;4974679;28;20192;-83
2023/03/20 11:40:14;;;;;;;2.83;2.50;;;;;;;;;;4969916;28;20191;-83
2023/03/20 11:42:51;;;;;;;2.73;2.50;;;;;;;;;;4973800;28;20250;-82
2023/03/20 11:45:16;;;;;;;2.80;2.13;;;;;;;;;;4951827;28;20252;-83
2023/03/20 11:47:44;;;;;;;3.23;2.60;;;;;;;;;;4951625;29;20212;-83
2023/03/20 11:50:33;;;;;;;2.57;2.37;;;;;;;;;;4952390;29;20182;-82
2023/03/20 11:52:59;;;;;;;3.13;2.73;;;;;;;;;;4949305;29;20197;-83
2023/03/20 11:55:29;;;;;;;3.37;2.70;;;;;;;;;;4951919;29;20189;-83
2023/03/20 11:57:55;;;;;;;3.63;2.83;;;;;;;;;;4952141;29;20260;-82
2023/03/20 12:00:23;;;;;;;3.40;3.10;;;;;;;;;;4951472;28;20257;-80
2023/03/20 12:02:48;;;;;;;2.97;2.50;;;;;;;;;;4952134;29;20185;-80
2023/03/20 12:05:17;;;;;;;2.53;2.33;;;;;;;;;;4953281;28;20182;-80
2023/03/20 12:07:43;;;;;;;2.87;2.60;;;;;;;;;;4951041;29;20182;-81
2023/03/20 12:10:13;;;;;;;4.03;2.30;;;;;;;;;;4951574;29;20273;-80
2023/03/20 12:12:44;;;;;;;2.57;2.37;;;;;;;;;;4951969;29;20182;-80
2023/03/20 12:15:22;;;;;;;2.53;2.33;;;;;;;;;;4953989;28;20201;-80
2023/03/20 12:18:01;;;;;;;3.43;2.77;;;;;;;;;;4955253;29;20210;-80
2023/03/20 12:20:27;;;;;;;3.03;2.73;;;;;;;;;;4955270;29;20162;-84
2023/03/20 12:23:08;;;;;;;3.93;3.10;;;;;;;;;;4955447;28;20169;-83
2023/03/20 12:25:43;;;;;;;2.93;2.67;;;;;;;;;;4955044;28;20189;-83
2023/03/20 12:28:17;;;;;;;3.20;2.90;;;;;;;;;;4956224;29;20208;-83
2023/03/20 12:30:45;;;;;;;3.10;2.73;;;;;;;;;;4959971;28;20187;-83
2023/03/20 12:33:21;;;;;;;3.10;2.77;;;;;;;;;;4966441;28;20178;-83
2023/03/20 12:35:48;;;;;;;3.20;2.90;;;;;;;;;;4960068;28;20181;-83
2023/03/20 12:38:21;;;;;;;3.77;2.80;;;;;;;;;;4952317;29;20229;-83
2023/03/20 12:40:49;;;;;;;2.10;1.90;;;;;;;;;;4952435;29;20178;-83
2023/03/20 12:43:17;;;;;;;2.40;2.20;;;;;;;;;;4958914;28;20217;-84
2023/03/20 12:45:47;;;;;;;3.73;2.57;;;;;;;;;;4994775;28;20237;-83
2023/03/20 12:48:32;;;;;;;2.20;1.90;;;;;;;;;;4977416;28;20202;-83
2023/03/20 12:51:02;;;;;;;2.40;2.20;;;;;;;;;;4977084;28;20199;-80
2023/03/20 12:53:46;;;;;;;2.20;2.00;;;;;;;;;;4976587;28;20281;-80
2023/03/20 12:56:20;;;;;;;2.57;2.37;;;;;;;;;;4980626;28;20246;-81
2023/03/20 12:58:47;;;;;;;3.13;2.40;;;;;;;;;;4977076;28;20212;-81
2023/03/20 13:01:12;;;;;;;2.83;2.40;;;;;;;;;;4979238;28;20257;-80
2023/03/20 13:03:44;;;;;;;1.90;1.80;;;;;;;;;;4977149;28;20320;-80
2023/03/20 13:06:15;;;;;;;2.07;1.93;;;;;;;;;;4976988;28;20174;-81
2023/03/20 13:08:43;;;;;;;3.67;2.43;;;;;;;;;;4977070;28;20179;-80
2023/03/20 13:11:13;;;;;;;2.80;2.40;;;;;;;;;;4976879;28;20185;-81
2023/03/20 13:13:46;;;;;;;2.30;2.10;;;;;;;;;;4977487;28;20192;-80
2023/03/20 13:16:23;;;;;;;2.40;2.20;;;;;;;;;;4974518;28;20218;-80
2023/03/20 13:19:07;;;;;;;2.53;2.33;;;;;;;;;;4993567;28;20225;-81
2023/03/20 13:21:42;;;;;;;2.23;2.03;;;;;;;;;;4992573;28;20178;-81
2023/03/20 13:24:31;;;;;;;2.30;2.10;;;;;;;;;;4978220;28;20174;-80
2023/03/20 13:27:06;;;;;;;1.97;1.87;;;;;;;;;;4971768;28;20217;-81
2023/03/20 13:29:34;;;;;;;2.50;2.27;;;;;;;;;;4981010;28;20202;-81
2023/03/20 13:32:05;;;;;;;2.60;1.83;;;;;;;;;;4976446;28;20213;-81
2023/03/20 13:34:49;;;;;;;2.63;1.63;;;;;;;;;;4993996;28;20270;-81
2023/03/20 13:37:18;;;;;;;2.50;2.00;;;;;;;;;;4990309;28;20291;-81
2023/03/20 13:39:46;;;;;;;2.10;1.90;;;;;;;;;;4976411;28;20205;-81
2023/03/20 13:42:13;;;;;;;3.33;2.60;;;;;;;;;;4989956;28;20210;-82
2023/03/20 13:44:42;;;;;;;2.53;1.90;;;;;;;;;;4972477;28;20231;-81
2023/03/20 13:47:12;;;;;;;2.50;2.27;;;;;;;;;;4979628;28;20179;-81
2023/03/20 13:49:41;;;;;;;2.47;2.27;;;;;;;;;;4972805;28;20275;-81
2023/03/20 13:52:09;;;;;;;2.30;2.10;;;;;;;;;;4973109;28;20177;-81
2023/03/20 13:54:35;;;;;;;4.17;2.77;;;;;;;;;;4972910;28;20184;-81
2023/03/20 13:57:12;;;;;;;6.00;4.63;;;;;;;;;;4972929;28;20202;-80
2023/03/20 13:59:56;;;;;;;4.50;2.80;;;;;;;;;;4971614;28;20206;-80
2023/03/20 14:02:26;;;;;;;8.60;4.70;;;;;;;;;;4973178;28;20175;-80
2023/03/20 14:04:56;;;;;;;10.63;5.97;;;;;;;;;;4971711;28;20195;-81
2023/03/20 14:07:29;;;;;;;35.43;24.73;;;;;;;;;;4972271;28;20177;-80
2023/03/20 14:09:55;;;;;;;4.20;3.43;;;;;;;;;;4973172;28;20221;-77
2023/03/20 14:12:22;;;;;;;3.37;2.87;;;;;;;;;;4970395;28;20239;-78
2023/03/20 14:14:55;;;;;;;3.00;2.80;;;;;;;;;;4969607;28;20183;-78
2023/03/20 14:17:23;;;;;;;4.90;3.87;;;;;;;;;;4968238;28;20259;-78
2023/03/20 14:19:50;;;;;;;6.80;3.50;;;;;;;;;;4972106;28;20175;-79
2023/03/20 14:22:35;;;;;;;11.77;4.57;;;;;;;;;;4971781;28;20209;-81
2023/03/20 14:25:05;;;;;;;4.00;3.60;;;;;;;;;;4973008;28;20192;-81
2023/03/20 14:27:34;;;;;;;3.10;2.80;;;;;;;;;;4975794;28;20272;-78
2023/03/20 14:30:19;;;;;;;4.17;3.80;;;;;;;;;;4969316;28;20192;-78
2023/03/20 14:32:50;;;;;;;3.43;3.13;;;;;;;;;;4965878;28;20201;-78
2023/03/20 14:35:21;;;;;;;4.43;3.93;;;;;;;;;;4967498;28;20202;-77
2023/03/20 14:38:01;;;;;;;4.03;3.40;;;;;;;;;;4971915;28;20205;-77
2023/03/20 14:40:32;;;;;;;4.17;3.73;;;;;;;;;;4965433;28;20179;-77
2023/03/20 14:43:09;;;;;;;4.03;3.60;;;;;;;;;;4971805;28;20235;-77
2023/03/20 14:45:37;;;;;;;4.10;3.80;;;;;;;;;;4972548;28;20186;-77
2023/03/20 14:48:21;;;;;;;3.00;2.70;;;;;;;;;;4973561;28;20174;-77
2023/03/20 14:51:05;;;;;;;3.60;3.00;;;;;;;;;;4967793;28;20196;-77
2023/03/20 14:53:32;;;;;;;3.83;3.43;;;;;;;;;;4973200;28;20184;-77